Time;durP1;ratioP1;P1;durP2;ratioP2;P2;SDS_P1;SDS_P2;PMS_P1;PMS_P2;Temp;Humidity;BMP_temperature;BMP_pressure;BME280_temperature;BME280_humidity;BME280_pressure;Samples;Min_cycle;Max_cycle;Signal;HPM_P1;HPM_P2
2023/06/20 00:02:13;;;;;;;;;0.00;0.00;;;;;22.66;64.28;100375.50;5050485;28;29793;-55
2023/06/20 00:04:39;;;;;;;;;2.75;2.50;;;;;22.73;64.18;100379.59;5049821;28;29766;-53
2023/06/20 00:07:04;;;;;;;;;1.75;1.75;;;;;22.71;64.35;100389.41;5049064;28;29708;-52
2023/06/20 00:09:30;;;;;;;;;1.50;1.00;;;;;22.69;64.31;100374.91;5050108;28;29263;-55
2023/06/20 00:11:55;;;;;;;;;1.25;0.75;;;;;22.59;65.03;100373.94;5050124;28;29538;-52
2023/06/20 00:14:21;;;;;;;;;2.00;2.00;;;;;22.50;65.11;100367.31;5048950;28;29599;-53
2023/06/20 00:16:46;;;;;;;;;3.00;3.00;;;;;22.48;64.86;100378.81;5050067;28;29885;-53
2023/06/20 00:19:12;;;;;;;;;3.25;2.75;;;;;22.44;65.67;100372.16;5050029;28;29363;-53
2023/06/20 00:21:39;;;;;;;;;2.50;2.00;;;;;22.44;65.72;100368.53;5049775;28;29533;-54
2023/06/20 00:24:09;;;;;;;;;2.00;2.00;;;;;22.46;65.72;100360.66;5050318;28;29249;-54
2023/06/20 00:26:36;;;;;;;;;1.40;1.40;;;;;22.46;65.80;100361.50;5050107;28;29499;-55
2023/06/20 00:29:01;;;;;;;;;2.80;2.80;;;;;22.43;65.82;100356.53;5065668;28;29817;-54
2023/06/20 00:31:26;;;;;;;;;2.75;2.25;;;;;22.36;65.78;100352.44;5050016;28;29679;-55
2023/06/20 00:33:52;;;;;;;;;1.25;1.25;;;;;22.43;65.97;100372.47;5048594;28;28986;-53
2023/06/20 00:36:25;;;;;;;;;3.25;2.00;;;;;22.44;65.77;100369.38;5049930;28;29291;-50
2023/06/20 00:38:52;;;;;;;;;0.60;0.40;;;;;22.45;65.97;100371.03;5049790;28;29599;-50
2023/06/20 00:41:21;;;;;;;;;1.60;0.60;;;;;22.44;66.05;100371.31;5049500;28;30383;-53
2023/06/20 00:43:49;;;;;;;;;2.00;2.00;;;;;22.46;65.87;100378.28;5049380;28;29566;-51
2023/06/20 00:46:16;;;;;;;;;2.00;2.00;;;;;22.52;65.90;100367.06;5048800;28;29785;-53
2023/06/20 00:48:42;;;;;;;;;1.80;1.80;;;;;22.52;65.79;100367.88;5049696;28;29354;-52
2023/06/20 00:51:07;;;;;;;;;3.00;2.00;;;;;22.50;66.07;100361.72;5049612;28;29650;-53
2023/06/20 00:53:33;;;;;;;;;2.50;1.75;;;;;22.36;66.32;100344.88;5064711;28;29905;-54
2023/06/20 00:55:59;;;;;;;;;2.75;2.75;;;;;22.37;66.23;100340.97;5049188;28;29811;-52
2023/06/20 00:58:24;;;;;;;;;3.75;2.00;;;;;22.34;66.51;100331.22;5048735;28;29425;-54
2023/06/20 01:00:50;;;;;;;;;4.75;3.00;;;;;22.41;66.64;100347.59;5049394;28;29255;-52
2023/06/20 01:03:15;;;;;;;;;2.00;2.00;;;;;22.44;66.45;100348.97;5055664;28;45319;-51
2023/06/20 01:05:43;;;;;;;;;2.75;2.75;;;;;22.44;66.44;100352.59;5039868;28;45477;-53
2023/06/20 01:08:30;;;;;;;;;1.40;1.00;;;;;22.38;66.81;100361.34;5030656;28;38343;-50
2023/06/20 01:11:04;;;;;;;;;3.00;3.00;;;;;22.33;66.99;100357.50;5049266;28;29781;-53
2023/06/20 01:13:49;;;;;;;;;1.00;1.00;;;;;22.37;66.94;100352.16;5047913;28;29577;-49
2023/06/20 01:16:57;;;;;;;;;1.00;1.00;;;;;22.41;67.02;100353.19;5047832;28;29746;-49
2023/06/20 01:19:32;;;;;;;;;4.00;3.00;;;;;22.37;67.14;100354.94;5047703;28;29481;-52
2023/06/20 01:22:07;;;;;;;;;2.20;2.20;;;;;22.31;67.24;100348.56;5049800;28;29942;-54
2023/06/20 01:24:39;;;;;;;;;2.00;2.00;;;;;22.38;66.95;100352.97;5048092;28;29805;-50
2023/06/20 01:27:15;;;;;;;;;3.20;3.00;;;;;22.40;67.38;100350.72;5049810;28;30078;-54
2023/06/20 01:29:49;;;;;;;;;3.00;1.80;;;;;22.26;67.29;100329.09;5047201;28;38615;-50
2023/06/20 01:32:16;;;;;;;;;1.00;1.00;;;;;22.31;67.31;100337.38;5031733;28;30050;-52
2023/06/20 01:34:48;;;;;;;;;2.80;2.00;;;;;22.25;67.55;100327.41;5031807;28;29245;-52
2023/06/20 01:37:16;;;;;;;;;3.60;2.40;;;;;22.26;67.75;100340.28;5047757;28;29616;-50
2023/06/20 01:39:46;;;;;;;;;3.00;1.80;;;;;22.25;67.63;100332.19;5048092;28;29990;-52
2023/06/20 01:42:12;;;;;;;;;4.00;2.60;;;;;22.22;67.84;100325.25;5047693;28;31629;-53
2023/06/20 01:44:38;;;;;;;;;3.80;3.40;;;;;22.29;67.75;100336.03;5047996;28;29453;-50
2023/06/20 01:47:04;;;;;;;;;3.25;2.25;;;;;22.25;67.99;100343.38;5049498;28;29715;-52
2023/06/20 01:49:29;;;;;;;;;2.00;2.00;;;;;22.25;67.88;100344.19;5047518;28;29377;-53
2023/06/20 01:51:56;;;;;;;;;2.50;2.50;;;;;22.23;67.73;100326.06;5031014;28;30494;-55
2023/06/20 01:54:23;;;;;;;;;3.00;3.00;;;;;22.28;67.57;100335.22;5048966;28;29105;-54
2023/06/20 01:56:48;;;;;;;;;2.20;2.20;;;;;22.32;67.84;100350.22;5047889;28;29301;-55
2023/06/20 01:59:14;;;;;;;;;4.00;4.00;;;;;22.27;68.25;100364.31;5049009;28;29637;-51
2023/06/20 02:01:42;;;;;;;;;2.00;2.00;;;;;22.26;68.05;100348.66;5047298;28;30569;-51
2023/06/20 02:04:08;;;;;;;;;3.00;3.00;;;;;22.21;68.42;100343.94;5000739;28;29523;-52
2023/06/20 02:06:33;;;;;;;;;6.75;4.25;;;;;22.15;68.44;100336.78;5010317;28;31199;-53
2023/06/20 02:08:58;;;;;;;;;3.50;2.75;;;;;22.11;68.85;100334.88;5011111;28;29139;-54
2023/06/20 02:11:24;;;;;;;;;3.25;3.25;;;;;22.07;68.75;100329.06;5027355;28;30021;-57
2023/06/20 02:13:49;;;;;;;;;3.00;3.00;;;;;22.04;69.27;100330.50;5027068;28;29815;-54
2023/06/20 02:16:15;;;;;;;;;3.75;3.50;;;;;22.01;69.26;100330.25;5027533;28;30034;-54
2023/06/20 02:18:40;;;;;;;;;4.50;3.25;;;;;22.07;68.72;100332.72;5011544;28;29257;-54
2023/06/20 02:21:09;;;;;;;;;3.75;2.75;;;;;22.05;68.84;100323.78;5027361;28;29149;-51
2023/06/20 02:23:36;;;;;;;;;3.80;3.80;;;;;22.13;69.27;100324.22;5027453;28;29068;-52
2023/06/20 02:26:10;;;;;;;;;3.00;3.00;;;;;22.15;68.96;100328.38;5027437;28;29730;-53
2023/06/20 02:28:41;;;;;;;;;4.00;4.00;;;;;22.15;69.02;100328.38;5027150;28;29411;-49
2023/06/20 02:31:07;;;;;;;;;3.20;3.20;;;;;22.19;69.10;100314.66;5028195;28;29289;-54
2023/06/20 02:33:33;;;;;;;;;3.80;3.80;;;;;22.18;69.14;100302.66;5026729;28;45196;-54
2023/06/20 02:36:00;;;;;;;;;3.75;3.75;;;;;22.26;68.86;100317.91;5027433;28;29116;-54
2023/06/20 02:38:26;;;;;;;;;6.00;4.80;;;;;22.23;69.10;100309.28;5028703;28;29493;-53
2023/06/20 02:40:51;;;;;;;;;6.25;4.00;;;;;22.23;68.93;100312.06;5026592;28;30243;-51
2023/06/20 02:43:16;;;;;;;;;5.00;4.00;;;;;22.28;68.60;100325.97;5044105;28;29323;-50
2023/06/20 02:45:42;;;;;;;;;2.75;2.75;;;;;22.24;69.06;100324.94;5051374;28;29844;-51
2023/06/20 02:48:28;;;;;;;;;8.25;6.00;;;;;22.24;68.54;100322.16;5050547;28;29779;-53
2023/06/20 02:51:08;;;;;;;;;4.00;4.00;;;;;22.20;69.02;100319.13;5051327;28;29366;-52
2023/06/20 02:53:48;;;;;;;;;7.80;4.80;;;;;22.22;69.00;100322.44;5045698;28;45309;-51
2023/06/20 02:56:13;;;;;;;;;5.00;4.00;;;;;22.23;68.81;100317.66;5049793;28;45313;-50
2023/06/20 02:58:45;;;;;;;;;5.25;4.00;;;;;22.09;68.98;100295.25;5048647;28;41684;-51
2023/06/20 03:01:10;;;;;;;;;4.60;4.60;;;;;22.16;68.99;100304.94;5033270;28;31144;-52
2023/06/20 03:03:38;;;;;;;;;4.00;4.00;;;;;22.21;69.07;100307.63;5051506;28;29464;-50
2023/06/20 03:06:06;;;;;;;;;4.00;4.00;;;;;22.17;69.04;100309.38;5049562;28;29827;-54
2023/06/20 03:08:32;;;;;;;;;4.80;4.60;;;;;22.10;69.39;100302.50;5051114;28;29461;-53
2023/06/20 03:10:57;;;;;;;;;3.00;3.00;;;;;22.11;69.45;100304.16;5033635;28;30521;-52
2023/06/20 03:13:23;;;;;;;;;4.75;4.75;;;;;22.12;69.43;100305.81;5050292;28;29835;-53
2023/06/20 03:15:49;;;;;;;;;5.00;4.00;;;;;22.11;69.31;100299.41;5049805;28;29441;-51
2023/06/20 03:18:18;;;;;;;;;6.40;4.20;;;;;22.13;69.45;100307.47;5051748;28;29509;-53
2023/06/20 03:20:45;;;;;;;;;6.60;3.80;;;;;22.11;69.56;100293.81;5051356;28;30895;-53
2023/06/20 03:23:10;;;;;;;;;6.00;4.00;;;;;22.07;69.46;100301.97;5051205;28;28969;-52
2023/06/20 03:25:36;;;;;;;;;7.75;5.00;;;;;22.02;69.35;100290.00;5051052;28;29251;-49
2023/06/20 03:28:01;;;;;;;;;3.50;3.50;;;;;22.05;69.37;100292.22;5051039;28;29114;-53
2023/06/20 03:30:27;;;;;;;;;4.25;4.25;;;;;22.05;69.27;100287.44;5049529;28;29642;-53
2023/06/20 03:32:52;;;;;;;;;4.00;4.00;;;;;22.13;69.33;100288.75;5049531;28;29341;-52
2023/06/20 03:35:17;;;;;;;;;3.25;3.25;;;;;22.11;69.07;100282.63;5051009;28;29168;-52
2023/06/20 03:37:43;;;;;;;;;4.75;4.75;;;;;22.19;68.92;100289.50;5051306;28;29243;-49
2023/06/20 03:40:09;;;;;;;;;5.00;4.00;;;;;22.16;69.08;100279.78;5050314;28;29612;-51
2023/06/20 03:42:35;;;;;;;;;4.00;4.00;;;;;22.24;68.70;100300.59;5050625;28;29675;-53
2023/06/20 03:45:00;;;;;;;;;5.50;5.50;;;;;22.20;68.75;100294.78;5050912;28;28954;-54
2023/06/20 03:47:25;;;;;;;;;4.00;4.00;;;;;22.14;69.03;100293.19;5050690;28;29587;-54
2023/06/20 03:49:51;;;;;;;;;6.50;4.75;;;;;22.12;69.31;100289.03;5050065;28;29891;-52
2023/06/20 03:52:16;;;;;;;;;4.00;4.00;;;;;22.16;69.13;100290.09;5050081;28;29090;-52
2023/06/20 03:54:42;;;;;;;;;7.25;6.25;;;;;22.15;68.98;100289.25;5050121;28;29821;-50
2023/06/20 03:57:07;;;;;;;;;4.75;4.75;;;;;22.17;69.18;100284.22;5048886;28;29562;-52
2023/06/20 03:59:33;;;;;;;;;6.00;6.00;;;;;22.22;68.98;100286.09;5050620;28;29271;-52
2023/06/20 04:01:58;;;;;;;;;4.00;4.00;;;;;22.23;68.79;100286.91;5050098;28;29370;-53
2023/06/20 04:04:24;;;;;;;;;4.75;4.75;;;;;22.12;68.84;100283.44;5049981;28;29388;-53
2023/06/20 04:06:49;;;;;;;;;7.25;7.25;;;;;22.15;69.00;100289.25;5050163;28;29333;-50
2023/06/20 04:09:18;;;;;;;;;4.50;4.00;;;;;22.16;68.98;100292.91;5050028;28;30070;-52
2023/06/20 04:11:44;;;;;;;;;4.60;4.60;;;;;22.10;69.04;100294.94;5050003;28;29217;-52
2023/06/20 04:14:10;;;;;;;;;5.00;5.00;;;;;22.13;69.18;100294.34;5049846;28;29328;-51
2023/06/20 04:16:35;;;;;;;;;4.75;4.00;;;;;22.09;69.32;100290.47;5050355;28;28925;-50
2023/06/20 04:19:01;;;;;;;;;7.25;7.25;;;;;22.05;69.03;100284.66;5049957;28;29121;-50
2023/06/20 04:21:26;;;;;;;;;6.75;6.25;;;;;21.96;69.50;100288.41;5049678;28;29267;-54
2023/06/20 04:23:52;;;;;;;;;6.00;6.00;;;;;22.03;69.40;100298.09;5050138;28;29818;-54
2023/06/20 04:26:17;;;;;;;;;6.25;5.50;;;;;22.06;69.32;100300.31;5049578;28;29910;-52
2023/06/20 04:28:43;;;;;;;;;6.00;6.00;;;;;22.11;69.33;100298.56;5064965;28;31600;-53
2023/06/20 04:31:08;;;;;;;;;5.75;5.00;;;;;22.08;69.34;100297.19;5049582;28;29507;-52
2023/06/20 04:33:34;;;;;;;;;6.50;4.50;;;;;22.04;69.00;100288.59;5049905;28;29779;-54
2023/06/20 04:35:59;;;;;;;;;5.00;5.00;;;;;22.06;69.18;100300.31;5050059;28;29425;-53
2023/06/20 04:38:25;;;;;;;;;7.25;7.25;;;;;22.09;69.01;100304.44;5049162;28;29830;-54
2023/06/20 04:40:50;;;;;;;;;7.00;7.00;;;;;22.14;69.17;100304.38;5049927;28;29431;-51
2023/06/20 04:43:16;;;;;;;;;5.50;4.50;;;;;22.19;69.08;100300.66;5049827;28;29414;-55
2023/06/20 04:45:41;;;;;;;;;5.00;4.25;;;;;22.14;68.78;100281.22;5049760;28;29181;-53
2023/06/20 04:48:07;;;;;;;;;4.75;3.75;;;;;22.10;68.92;100278.19;5049594;28;29434;-52
2023/06/20 04:50:32;;;;;;;;;7.25;6.75;;;;;22.16;68.80;100290.09;5049354;28;29210;-51
2023/06/20 04:52:58;;;;;;;;;6.00;6.00;;;;;22.24;68.59;100280.22;5065126;28;29854;-51
2023/06/20 04:55:23;;;;;;;;;6.00;6.00;;;;;22.22;68.49;100283.31;5049521;28;29512;-53
2023/06/20 04:57:49;;;;;;;;;6.75;5.50;;;;;22.18;68.45;100265.47;5049467;28;29884;-53
2023/06/20 05:00:15;;;;;;;;;6.00;5.00;;;;;22.21;68.26;100262.91;5048650;28;28936;-54
2023/06/20 05:02:44;;;;;;;;;6.60;5.00;;;;;22.19;68.15;100264.34;5048025;28;28705;-50
2023/06/20 05:05:10;;;;;;;;;5.20;4.20;;;;;22.24;68.25;100281.03;5048800;28;29255;-53
2023/06/20 05:07:35;;;;;;;;;9.60;8.40;;;;;22.24;68.27;100281.03;5049420;28;30359;-52
2023/06/20 05:10:01;;;;;;;;;7.75;5.50;;;;;22.25;68.06;100288.28;5050222;28;28931;-51
2023/06/20 05:12:26;;;;;;;;;5.50;5.50;;;;;22.29;68.08;100283.75;5049875;28;29141;-53
2023/06/20 05:14:52;;;;;;;;;8.50;8.25;;;;;22.28;67.98;100273.72;5049952;28;28862;-54
2023/06/20 05:17:17;;;;;;;;;5.75;5.00;;;;;22.37;67.98;100282.25;5049833;28;29207;-53
2023/06/20 05:19:43;;;;;;;;;6.75;5.00;;;;;22.42;67.59;100276.56;5049140;28;29648;-52
2023/06/20 05:22:08;;;;;;;;;7.00;6.00;;;;;22.48;67.65;100283.75;5049541;28;29564;-55
2023/06/20 05:24:33;;;;;;;;;6.75;5.00;;;;;22.46;67.33;100279.59;5049835;28;29139;-55
2023/06/20 05:26:59;;;;;;;;;4.75;4.50;;;;;22.54;67.01;100290.13;5049318;28;30551;-53
2023/06/20 05:29:24;;;;;;;;;8.25;7.00;;;;;22.53;67.14;100287.63;5049296;28;29399;-55
2023/06/20 05:31:50;;;;;;;;;9.50;5.50;;;;;22.45;67.10;100281.56;5049286;28;29379;-55
2023/06/20 05:34:15;;;;;;;;;8.75;7.75;;;;;22.36;67.68;100271.38;5049719;28;28938;-50
2023/06/20 05:36:41;;;;;;;;;6.25;5.25;;;;;22.47;67.23;100276.50;5049328;28;29527;-56
2023/06/20 05:39:08;;;;;;;;;7.75;7.50;;;;;22.54;66.84;100266.91;5049310;28;28657;-52
2023/06/20 05:41:35;;;;;;;;;8.00;7.00;;;;;22.56;67.11;100264.63;5049673;28;29183;-53
2023/06/20 05:44:00;;;;;;;;;9.80;7.00;;;;;22.60;66.91;100262.91;5039668;28;28983;-53
2023/06/20 05:46:26;;;;;;;;;6.75;5.50;;;;;22.59;66.61;100261.25;5028423;28;29304;-52
2023/06/20 05:48:51;;;;;;;;;9.00;8.25;;;;;22.60;66.92;100260.09;5048823;28;28918;-54
2023/06/20 05:51:17;;;;;;;;;8.00;7.00;;;;;22.59;66.82;100259.28;5049115;28;29271;-53
2023/06/20 05:53:42;;;;;;;;;8.50;8.50;;;;;22.70;66.30;100270.28;5048793;28;29862;-51
2023/06/20 05:56:09;;;;;;;;;9.00;8.75;;;;;22.72;66.34;100268.00;5048553;28;29733;-53
2023/06/20 05:58:35;;;;;;;;;13.80;10.00;;;;;22.71;66.31;100271.94;5048198;28;44924;-52
2023/06/20 06:01:01;;;;;;;;;8.00;7.00;;;;;22.74;66.37;100276.94;5048646;28;29526;-50
2023/06/20 06:03:27;;;;;;;;;9.00;9.00;;;;;22.75;66.17;100279.41;5048858;28;29370;-54
2023/06/20 06:05:52;;;;;;;;;6.50;6.00;;;;;22.75;65.90;100270.22;5048384;28;29241;-51
2023/06/20 06:08:19;;;;;;;;;8.25;6.50;;;;;22.84;65.67;100273.97;5048294;28;29582;-56
2023/06/20 06:10:45;;;;;;;;;8.00;7.20;;;;;22.83;65.91;100272.28;5048917;28;29189;-53
2023/06/20 06:13:10;;;;;;;;;9.00;8.00;;;;;22.79;66.05;100251.66;5048332;28;29123;-49
2023/06/20 06:15:36;;;;;;;;;10.25;8.50;;;;;22.91;65.49;100272.72;5048762;28;29715;-55
2023/06/20 06:18:03;;;;;;;;;8.00;7.50;;;;;22.90;65.73;100255.13;5051419;28;29074;-50
2023/06/20 06:20:29;;;;;;;;;10.00;8.40;;;;;22.99;65.43;100261.66;5052028;28;28646;-55
2023/06/20 06:22:55;;;;;;;;;9.25;8.50;;;;;23.00;65.40;100262.50;5052123;28;29619;-55
2023/06/20 06:25:20;;;;;;;;;7.00;7.00;;;;;23.05;65.44;100258.78;5051679;28;29720;-55
2023/06/20 06:27:46;;;;;;;;;8.00;8.00;;;;;23.08;65.53;100270.19;5067464;28;29628;-53
2023/06/20 06:30:14;;;;;;;;;14.75;9.50;;;;;23.15;65.05;100267.81;5051639;28;29168;-52
2023/06/20 06:32:39;;;;;;;;;8.20;8.20;;;;;23.18;64.91;100273.91;5050845;28;29207;-56
2023/06/20 06:35:05;;;;;;;;;11.00;9.75;;;;;23.32;64.42;100282.38;5050149;28;29276;-54
2023/06/20 06:37:31;;;;;;;;;11.20;8.40;;;;;23.38;64.36;100287.53;5050798;28;28823;-51
2023/06/20 06:39:59;;;;;;;;;10.00;9.00;;;;;23.40;64.02;100285.28;5052328;28;28824;-55
2023/06/20 06:42:25;;;;;;;;;9.00;9.00;;;;;23.51;63.93;100291.50;5050346;28;29109;-57
2023/06/20 06:44:50;;;;;;;;;8.00;8.00;;;;;23.54;63.65;100298.47;5050450;28;30436;-56
2023/06/20 06:47:16;;;;;;;;;11.25;10.25;;;;;23.62;63.82;100294.09;5032931;28;29619;-54
2023/06/20 06:49:41;;;;;;;;;10.75;9.25;;;;;23.67;63.64;100303.22;5045172;28;29798;-52
2023/06/20 06:52:07;;;;;;;;;9.00;9.00;;;;;23.60;63.52;100288.81;5051338;28;29980;-53
2023/06/20 06:54:32;;;;;;;;;11.00;10.00;;;;;23.73;63.18;100283.53;5051342;28;29535;-51
2023/06/20 06:56:58;;;;;;;;;8.00;8.00;;;;;23.81;63.31;100279.97;5066789;28;29847;-52
2023/06/20 06:59:23;;;;;;;;;11.00;10.00;;;;;23.85;62.75;100269.78;5050834;28;29815;-54
2023/06/20 07:01:49;;;;;;;;;11.00;11.00;;;;;23.89;62.71;100276.44;5051714;28;29699;-55
2023/06/20 07:04:14;;;;;;;;;11.25;11.00;;;;;23.88;62.55;100269.19;5049586;28;29935;-54
2023/06/20 07:06:40;;;;;;;;;11.00;10.00;;;;;23.92;62.53;100266.56;5066827;28;29166;-52
2023/06/20 07:09:06;;;;;;;;;10.25;10.25;;;;;23.98;62.15;100268.13;5049868;28;29493;-52
2023/06/20 07:11:31;;;;;;;;;12.25;10.25;;;;;24.01;62.32;100269.47;5066710;28;29463;-53
2023/06/20 07:13:57;;;;;;;;;14.25;12.00;;;;;24.00;62.26;100276.22;5050666;28;36046;-51
2023/06/20 07:16:22;;;;;;;;;14.50;13.75;;;;;23.96;62.09;100276.84;5051384;28;29522;-53
2023/06/20 07:18:48;;;;;;;;;14.50;12.25;;;;;23.88;62.43;100274.78;5051166;28;29229;-54
2023/06/20 07:21:13;;;;;;;;;15.00;13.00;;;;;23.91;62.14;100281.72;5051087;28;29671;-56
2023/06/20 07:23:39;;;;;;;;;11.25;11.00;;;;;24.06;62.15;100292.63;5050649;28;29433;-56
2023/06/20 07:26:04;;;;;;;;;13.50;11.25;;;;;24.09;61.80;100296.78;5050719;28;29526;-55
2023/06/20 07:28:30;;;;;;;;;12.00;11.25;;;;;24.13;61.94;100302.56;5049531;28;29188;-52
2023/06/20 07:30:55;;;;;;;;;11.00;10.75;;;;;24.17;61.57;100304.44;5066825;28;28865;-54
2023/06/20 07:33:21;;;;;;;;;13.25;13.25;;;;;24.14;61.90;100307.88;5050272;28;45396;-55
2023/06/20 07:35:46;;;;;;;;;12.75;12.00;;;;;24.20;61.28;100314.19;5035866;28;45378;-54
2023/06/20 07:38:12;;;;;;;;;17.25;13.00;;;;;24.21;61.79;100325.09;5047842;28;44548;-53
2023/06/20 07:40:40;;;;;;;;;13.25;12.50;;;;;24.20;61.79;100331.84;5050651;28;29746;-53
2023/06/20 07:43:05;;;;;;;;;14.40;13.40;;;;;24.15;61.94;100334.75;5034991;28;30023;-56
2023/06/20 07:45:31;;;;;;;;;13.00;11.50;;;;;24.20;61.80;100325.41;5046075;28;29199;-53
2023/06/20 07:47:56;;;;;;;;;12.00;9.25;;;;;24.18;61.28;100313.69;5067651;28;29740;-55
2023/06/20 07:50:22;;;;;;;;;15.25;14.25;;;;;24.12;61.43;100318.56;5030950;28;29644;-54
2023/06/20 07:52:48;;;;;;;;;13.20;12.60;;;;;24.16;61.40;100325.19;5046174;28;31046;-53
2023/06/20 07:55:14;;;;;;;;;14.25;12.75;;;;;24.30;61.20;100325.19;5046566;28;29421;-53
2023/06/20 07:57:39;;;;;;;;;15.50;12.25;;;;;24.36;61.64;100334.28;5048987;28;29508;-54
2023/06/20 08:00:09;;;;;;;;;14.50;12.00;;;;;24.44;60.86;100330.72;5047599;28;42411;-51
2023/06/20 08:02:34;;;;;;;;;11.20;11.20;;;;;24.45;60.91;100329.56;5047219;28;29813;-50
2023/06/20 08:05:00;;;;;;;;;13.00;11.25;;;;;24.54;60.43;100342.88;5047931;28;29768;-55
2023/06/20 08:07:25;;;;;;;;;15.50;13.50;;;;;24.56;60.51;100337.75;5046012;28;30052;-54
2023/06/20 08:09:51;;;;;;;;;14.25;14.25;;;;;24.63;60.21;100343.75;5048538;28;29770;-52
2023/06/20 08:12:16;;;;;;;;;13.50;13.50;;;;;24.70;60.27;100344.16;5048302;28;29529;-54
2023/06/20 08:14:42;;;;;;;;;16.50;13.50;;;;;24.76;59.81;100337.25;5048014;28;29474;-53
2023/06/20 08:17:07;;;;;;;;;13.50;12.00;;;;;24.86;59.98;100341.00;5048608;28;29644;-54
2023/06/20 08:19:33;;;;;;;;;11.00;11.00;;;;;24.94;59.24;100331.81;5047656;28;29670;-54
2023/06/20 08:21:58;;;;;;;;;15.25;13.50;;;;;25.05;59.09;100326.78;5063488;28;29765;-54
2023/06/20 08:24:24;;;;;;;;;16.00;12.75;;;;;25.13;58.53;100328.78;5048239;28;29751;-54
2023/06/20 08:26:49;;;;;;;;;13.50;13.50;;;;;25.20;58.64;100328.34;5048181;28;29863;-54
2023/06/20 08:29:15;;;;;;;;;14.25;14.00;;;;;25.21;58.02;100312.31;5048597;28;29501;-52
2023/06/20 08:31:40;;;;;;;;;14.50;13.75;;;;;25.23;57.98;100324.88;5046847;28;29546;-54
2023/06/20 08:34:06;;;;;;;;;12.50;12.50;;;;;25.23;58.23;100301.59;5047665;28;29949;-55
2023/06/20 08:36:34;;;;;;;;;13.00;12.25;;;;;25.31;57.98;100298.00;5048866;28;29571;-51
2023/06/20 08:39:01;;;;;;;;;14.00;12.00;;;;;25.38;57.94;100308.75;5048227;28;29468;-52
2023/06/20 08:41:26;;;;;;;;;16.80;16.80;;;;;25.45;57.68;100289.47;5039762;28;42448;-55
2023/06/20 08:43:52;;;;;;;;;14.00;14.00;;;;;25.45;57.67;100297.88;5035880;28;30028;-55
2023/06/20 08:46:17;;;;;;;;;14.00;13.00;;;;;25.52;57.69;100292.69;5045374;28;44992;-53
2023/06/20 08:48:43;;;;;;;;;12.00;10.25;;;;;25.52;57.73;100297.44;5048159;28;29683;-52
2023/06/20 08:51:10;;;;;;;;;18.00;16.50;;;;;25.61;57.90;100303.13;5047239;28;30547;-54
2023/06/20 08:53:36;;;;;;;;;33.60;30.20;;;;;25.62;57.89;100290.72;5046591;28;29301;-53
2023/06/20 08:56:01;;;;;;;;;16.00;16.00;;;;;25.75;57.31;100295.38;5045149;28;29851;-54
2023/06/20 08:58:27;;;;;;;;;16.00;14.75;;;;;25.74;57.48;100293.75;5046391;28;29875;-54
2023/06/20 09:00:53;;;;;;;;;17.50;17.25;;;;;25.79;57.48;100295.56;5025953;28;29635;-54
2023/06/20 09:03:19;;;;;;;;;14.40;14.20;;;;;25.74;57.56;100285.31;5044986;28;45228;-54
2023/06/20 09:05:47;;;;;;;;;15.00;15.00;;;;;25.72;57.47;100284.81;5049017;28;29420;-50
2023/06/20 09:08:14;;;;;;;;;12.40;11.40;;;;;25.65;57.90;100281.63;5049144;28;29316;-54
2023/06/20 09:10:41;;;;;;;;;16.40;12.80;;;;;25.67;57.91;100285.78;5049277;28;29521;-54
2023/06/20 09:13:08;;;;;;;;;15.00;14.20;;;;;25.69;57.88;100288.25;5048867;28;29262;-55
2023/06/20 09:15:34;;;;;;;;;14.80;13.60;;;;;25.69;58.17;100285.44;5061675;28;29343;-56
2023/06/20 09:18:01;;;;;;;;;16.60;16.60;;;;;25.75;57.84;100289.75;5047107;28;29182;-54
2023/06/20 09:20:31;;;;;;;;;16.80;16.20;;;;;25.81;57.78;100277.22;5047573;28;29709;-54
2023/06/20 09:22:59;;;;;;;;;13.60;13.60;;;;;25.90;57.50;100271.63;5046882;28;29820;-53
2023/06/20 09:25:27;;;;;;;;;19.00;18.40;;;;;25.96;57.54;100270.31;5047688;28;29984;-52
2023/06/20 09:27:53;;;;;;;;;18.00;14.60;;;;;26.02;57.37;100268.16;5048750;28;29383;-53
2023/06/20 09:30:19;;;;;;;;;14.60;13.00;;;;;26.09;56.93;100268.50;5046104;28;42624;-54
2023/06/20 09:32:44;;;;;;;;;13.00;13.00;;;;;25.99;56.94;100264.03;5048154;28;29540;-55
2023/06/20 09:35:11;;;;;;;;;29.00;26.50;;;;;26.08;57.07;100272.47;5047621;28;29467;-55
2023/06/20 09:37:43;;;;;;;;;13.60;12.80;;;;;26.15;56.66;100266.38;5047280;28;30031;-53
2023/06/20 09:40:16;;;;;;;;;24.60;23.40;;;;;26.18;57.00;100271.31;5048534;28;29773;-51
2023/06/20 09:42:43;;;;;;;;;13.80;13.80;;;;;26.13;56.55;100257.41;5048742;28;29753;-54
2023/06/20 09:45:11;;;;;;;;;16.00;12.00;;;;;26.14;55.96;100259.06;5043831;28;29507;-55
2023/06/20 09:47:37;;;;;;;;;13.60;11.40;;;;;26.17;56.26;100268.81;5029109;28;28806;-56
2023/06/20 09:50:07;;;;;;;;;11.40;11.40;;;;;26.11;56.13;100263.34;5028356;28;29947;-54
2023/06/20 09:52:53;;;;;;;;;13.60;11.40;;;;;26.21;55.59;100269.84;5031277;28;29993;-53
2023/06/20 09:55:19;;;;;;;;;11.20;11.20;;;;;26.21;55.30;100265.03;5030461;28;30135;-53
2023/06/20 09:57:50;;;;;;;;;11.75;10.00;;;;;26.34;55.19;100282.94;5030687;28;29279;-54
2023/06/20 10:00:16;;;;;;;;;14.80;12.80;;;;;26.42;55.00;100286.91;5032305;28;30160;-54
2023/06/20 10:02:44;;;;;;;;;12.00;10.75;;;;;26.52;54.60;100297.00;5030635;28;29628;-54
2023/06/20 10:05:17;;;;;;;;;11.40;11.40;;;;;26.54;54.09;100286.25;5022132;28;29473;-51
2023/06/20 10:07:44;;;;;;;;;11.60;10.40;;;;;26.65;53.92;100290.38;5033519;28;29657;-54
2023/06/20 10:10:10;;;;;;;;;10.20;9.60;;;;;26.78;53.40;100302.59;5050413;28;30537;-53
2023/06/20 10:12:37;;;;;;;;;10.60;9.80;;;;;26.80;53.33;100314.34;5030737;28;29865;-52
2023/06/20 10:15:03;;;;;;;;;9.40;9.40;;;;;26.77;52.47;100314.19;5025981;28;45880;-59
2023/06/20 10:17:39;;;;;;;;;14.60;12.20;;;;;26.82;52.66;100311.19;5025001;28;45386;-53
2023/06/20 10:20:07;;;;;;;;;16.40;12.80;;;;;26.92;52.20;100313.72;5060291;28;30595;-56
2023/06/20 10:22:34;;;;;;;;;12.00;11.00;;;;;27.09;51.37;100311.19;5050951;28;29666;-60
2023/06/20 10:25:11;;;;;;;;;12.00;9.60;;;;;27.11;51.51;100320.94;5048707;28;29545;-58
2023/06/20 10:27:39;;;;;;;;;11.40;10.40;;;;;27.24;51.00;100321.06;5049047;28;29620;-57
2023/06/20 10:30:06;;;;;;;;;9.00;9.00;;;;;27.29;50.28;100327.38;5025981;28;30225;-56
2023/06/20 10:32:31;;;;;;;;;9.80;8.60;;;;;27.35;50.74;100328.00;5049349;28;29885;-58
2023/06/20 10:35:03;;;;;;;;;9.25;9.25;;;;;27.42;50.15;100333.94;5048285;28;30007;-58
2023/06/20 10:37:28;;;;;;;;;6.80;6.80;;;;;27.42;50.21;100336.75;5045867;28;29792;-57
2023/06/20 10:39:57;;;;;;;;;11.25;11.25;;;;;27.41;50.16;100323.00;5050120;28;29922;-56
2023/06/20 10:42:42;;;;;;;;;6.60;6.60;;;;;27.40;49.59;100322.19;5048732;28;29573;-60
2023/06/20 10:45:17;;;;;;;;;9.20;9.20;;;;;27.47;49.32;100333.75;5050643;28;29373;-59
2023/06/20 10:47:42;;;;;;;;;9.80;9.80;;;;;27.50;49.33;100328.59;5049365;28;28993;-61
2023/06/20 10:50:08;;;;;;;;;9.50;9.50;;;;;27.57;48.65;100332.59;5050397;28;29987;-54
2023/06/20 10:52:35;;;;;;;;;8.50;7.50;;;;;27.67;48.72;100333.38;5048733;28;30165;-58
2023/06/20 10:55:01;;;;;;;;;9.60;7.60;;;;;27.64;49.03;100332.06;5050286;28;29331;-55
2023/06/20 10:57:28;;;;;;;;;12.40;9.80;;;;;27.70;48.80;100327.88;5048216;28;29388;-55
2023/06/20 10:59:53;;;;;;;;;10.60;8.80;;;;;27.77;48.43;100329.34;5047366;28;30058;-57
2023/06/20 11:02:19;;;;;;;;;7.50;7.50;;;;;27.86;48.07;100330.13;5045226;28;30080;-59
2023/06/20 11:04:47;;;;;;;;;12.00;9.60;;;;;27.93;48.47;100336.06;5043859;28;29627;-58
2023/06/20 11:07:13;;;;;;;;;7.80;7.80;;;;;27.92;48.14;100331.59;5047272;28;29709;-61
2023/06/20 11:09:39;;;;;;;;;10.75;10.75;;;;;27.98;48.41;100337.84;5025723;28;38464;-59
2023/06/20 11:12:08;;;;;;;;;11.20;8.40;;;;;27.98;49.05;100341.53;5042638;28;29487;-54
2023/06/20 11:14:33;;;;;;;;;9.60;8.00;;;;;27.92;48.80;100325.97;5046901;28;45149;-55
2023/06/20 11:16:59;;;;;;;;;9.00;8.00;;;;;27.98;48.62;100333.06;5046699;28;44870;-60
2023/06/20 11:19:27;;;;;;;;;12.00;8.75;;;;;28.00;50.59;100338.34;5048965;28;46282;-60